Terminal Aerodrome Forecast
Issued by NWS Knoxville/Tri Cities, TN

Home | Current Version | Previous Version | Text Only | Print | Product List | Glossary On
Versions: 1 2 3 4 5 6 7 8 9 10 11 12 13 14 15 16 17 18 19 20 21 22 23 24 25 26
000
FTUS44 KMRX 120521
TAFCHA
TAF
KCHA 120521Z 1206/1306 22006KT P6SM BKN200
     FM121100 33009KT P6SM BKN035
     FM121400 32014G24KT P6SM BKN035
     FM121900 30015G25KT P6SM SCT035
     FM130100 32008KT P6SM SKC=

USA.gov is the U.S. government's official web portal to all federal, state and local government web resources and services.